Time;durP1;ratioP1;P1;durP2;ratioP2;P2;SDS_P1;SDS_P2;PMS_P1;PMS_P2;Temp;Humidity;BMP_temperature;BMP_pressure;BME280_temperature;BME280_humidity;BME280_pressure;Samples;Min_cycle;Max_cycle;Signal;HPM_P1;HPM_P2
2022/05/30 00:00:34;;;;;;;1.65;0.50;;;14.80;99.90;;;;;;1899569;75;21086;-80
2022/05/30 00:03:25;;;;;;;1.45;0.50;;;14.80;99.90;;;;;;1882280;76;21073;-80
2022/05/30 00:06:21;;;;;;;1.57;0.70;;;14.90;99.90;;;;;;1861734;76;21164;-80
2022/05/30 00:09:13;;;;;;;3.22;0.70;;;14.80;99.90;;;;;;1864719;76;21546;-80
2022/05/30 00:12:07;;;;;;;2.17;0.50;;;14.80;99.90;;;;;;1850384;77;21070;-80
2022/05/30 00:14:58;;;;;;;2.27;0.68;;;14.80;99.90;;;;;;1902567;74;21180;-80
2022/05/30 00:17:52;;;;;;;1.67;0.50;;;14.80;99.90;;;;;;1893443;76;21146;-80
2022/05/30 00:20:47;;;;;;;3.20;0.60;;;14.70;99.90;;;;;;1908753;74;21213;-80
2022/05/30 00:26:20;;;;;;;1.27;0.50;;;14.70;99.90;;;;;;1943840;72;22242;-79
2022/05/30 00:29:30;;;;;;;0.78;0.50;;;14.60;99.90;;;;;;1885712;75;21141;-81
2022/05/30 00:32:41;;;;;;;1.57;0.70;;;14.60;99.90;;;;;;1884186;75;21159;-80
2022/05/30 00:35:33;;;;;;;3.75;0.72;;;14.50;99.90;;;;;;1853600;76;21145;-80
2022/05/30 00:38:43;;;;;;;1.85;0.45;;;14.40;99.90;;;;;;1890914;75;21091;-80
2022/05/30 00:41:34;;;;;;;2.67;0.42;;;14.40;99.90;;;;;;1885933;75;21060;-80
2022/05/30 00:44:26;;;;;;;1.92;0.50;;;14.30;99.90;;;;;;1882914;75;21380;-80
2022/05/30 00:47:19;;;;;;;1.45;0.50;;;14.30;99.90;;;;;;1883296;75;21110;-80
2022/05/30 00:50:12;;;;;;;2.33;0.68;;;14.30;99.90;;;;;;1885165;75;21670;-80
2022/05/30 00:53:03;;;;;;;2.50;0.50;;;14.20;99.90;;;;;;1887608;75;21063;-80
2022/05/30 00:55:55;;;;;;;1.60;0.60;;;14.20;99.90;;;;;;1883536;75;21175;-80
2022/05/30 00:58:48;;;;;;;2.87;0.65;;;14.30;99.90;;;;;;1883219;75;21153;-80
2022/05/30 01:01:40;;;;;;;2.02;0.50;;;14.30;99.90;;;;;;1883394;75;21091;-81
2022/05/30 01:07:42;;;;;;;1.75;0.50;;;14.30;99.90;;;;;;1872517;76;21184;-81
2022/05/30 01:10:34;;;;;;;1.05;0.65;;;14.40;99.90;;;;;;1904350;75;21158;-80
2022/05/30 01:13:27;;;;;;;1.47;0.60;;;14.40;99.90;;;;;;1877694;75;21069;-81
2022/05/30 01:16:19;;;;;;;1.77;0.60;;;14.40;99.90;;;;;;1872867;76;21550;-81
2022/05/30 01:19:15;;;;;;;1.00;0.57;;;14.40;99.90;;;;;;1888599;75;21216;-80
2022/05/30 01:22:41;;;;;;;2.83;0.60;;;14.50;99.90;;;;;;1872997;76;21522;-80
2022/05/30 01:25:55;;;;;;;2.75;0.50;;;14.60;99.90;;;;;;1889536;74;21071;-80
2022/05/30 01:28:55;;;;;;;1.22;0.42;;;14.60;99.90;;;;;;1894337;75;21103;-80
2022/05/30 01:31:47;;;;;;;2.12;0.70;;;14.60;99.90;;;;;;1891394;75;21090;-80
2022/05/30 01:34:39;;;;;;;2.40;0.72;;;14.60;99.90;;;;;;1904884;75;21116;-80
2022/05/30 01:37:31;;;;;;;1.60;0.70;;;14.60;99.90;;;;;;1842359;75;21114;-80
2022/05/30 01:40:24;;;;;;;2.52;1.00;;;14.60;99.90;;;;;;1892955;75;21082;-80
2022/05/30 01:43:16;;;;;;;2.77;0.60;;;14.60;99.90;;;;;;1890805;75;21165;-80
2022/05/30 01:46:11;;;;;;;1.62;0.57;;;14.60;99.90;;;;;;1890364;75;21067;-80
2022/05/30 01:49:07;;;;;;;1.67;0.50;;;14.60;99.90;;;;;;1888029;75;21163;-80
2022/05/30 01:51:59;;;;;;;1.82;0.60;;;14.50;99.90;;;;;;1889129;75;21096;-80
2022/05/30 01:54:51;;;;;;;1.67;0.57;;;14.50;99.90;;;;;;1893199;75;21113;-80
2022/05/30 01:57:47;;;;;;;2.12;0.60;;;14.60;99.90;;;;;;1890088;75;21527;-80
2022/05/30 02:00:47;;;;;;;1.30;0.72;;;14.60;99.90;;;;;;1887503;75;21712;-80
2022/05/30 02:03:38;;;;;;;1.02;0.50;;;14.60;99.90;;;;;;1884843;75;21155;-80
2022/05/30 02:06:31;;;;;;;2.42;0.57;;;14.50;99.90;;;;;;1877606;76;21095;-80
2022/05/30 02:09:23;;;;;;;1.10;0.70;;;14.50;99.90;;;;;;1876348;75;21084;-80
2022/05/30 02:12:15;;;;;;;1.80;0.60;;;14.60;99.90;;;;;;1899863;75;21162;-80
2022/05/30 02:15:09;;;;;;;2.27;0.75;;;14.60;99.90;;;;;;1903746;75;21209;-80
2022/05/30 02:18:01;;;;;;;1.47;0.53;;;14.60;99.90;;;;;;1887923;75;21150;-80
2022/05/30 02:20:53;;;;;;;1.77;0.70;;;14.60;99.90;;;;;;1910491;74;21043;-80
2022/05/30 02:23:45;;;;;;;1.12;0.55;;;14.50;99.90;;;;;;1888920;75;21095;-80
2022/05/30 02:26:39;;;;;;;2.20;0.60;;;14.50;99.90;;;;;;1885370;75;21153;-80
2022/05/30 02:29:32;;;;;;;1.77;0.60;;;14.40;99.90;;;;;;1881782;75;21112;-81
2022/05/30 02:32:24;;;;;;;1.05;0.53;;;14.40;99.90;;;;;;1884878;75;21147;-80
2022/05/30 02:38:27;;;;;;;1.25;0.50;;;14.40;99.90;;;;;;1890127;74;21098;-80
2022/05/30 02:41:37;;;;;;;3.08;0.70;;;14.40;99.90;;;;;;1885017;75;21177;-80
2022/05/30 02:44:29;;;;;;;3.12;0.72;;;14.40;99.90;;;;;;1882357;75;21633;-80
2022/05/30 02:47:21;;;;;;;1.75;0.82;;;14.40;99.90;;;;;;1881889;75;21184;-80
2022/05/30 02:50:14;;;;;;;1.52;0.60;;;14.40;99.90;;;;;;1887691;75;21177;-80
2022/05/30 02:53:06;;;;;;;1.30;0.60;;;14.30;99.90;;;;;;1885008;75;21577;-80
2022/05/30 02:56:18;;;;;;;3.33;0.55;;;14.20;99.90;;;;;;1887129;75;21107;-80
2022/05/30 02:59:10;;;;;;;2.42;0.72;;;14.10;99.90;;;;;;1898822;75;21091;-81
2022/05/30 03:02:04;;;;;;;1.72;0.85;;;14.10;99.90;;;;;;1892213;75;21109;-80
2022/05/30 03:04:56;;;;;;;2.37;0.50;;;14.20;99.90;;;;;;1892921;75;21107;-80
2022/05/30 03:07:47;;;;;;;1.40;0.60;;;14.10;99.90;;;;;;1889443;75;21206;-80
2022/05/30 03:10:41;;;;;;;1.82;0.70;;;14.10;99.90;;;;;;1903956;75;21157;-80
2022/05/30 03:13:32;;;;;;;1.17;0.60;;;14.10;99.90;;;;;;1885211;75;21146;-80
2022/05/30 03:16:23;;;;;;;1.75;0.60;;;14.20;99.90;;;;;;1873853;75;21222;-80
2022/05/30 03:19:15;;;;;;;1.35;0.55;;;14.10;99.90;;;;;;1890314;75;21132;-80
2022/05/30 03:22:07;;;;;;;2.58;0.60;;;14.10;99.90;;;;;;1888010;75;21047;-80
2022/05/30 03:25:01;;;;;;;2.05;0.57;;;14.10;99.90;;;;;;1884033;75;21143;-80
2022/05/30 03:27:54;;;;;;;3.08;0.70;;;14.10;99.90;;;;;;1880464;75;21221;-80
2022/05/30 03:30:45;;;;;;;1.25;0.62;;;14.10;99.90;;;;;;1890506;75;21186;-80
2022/05/30 03:33:37;;;;;;;1.37;0.72;;;14.10;99.90;;;;;;1886121;75;21475;-80
2022/05/30 03:36:29;;;;;;;2.92;0.60;;;14.10;99.90;;;;;;1883299;75;21099;-80
2022/05/30 03:39:25;;;;;;;2.47;0.68;;;14.10;99.90;;;;;;1884846;75;21161;-80
2022/05/30 03:42:34;;;;;;;1.80;0.60;;;14.10;99.90;;;;;;1882858;75;21155;-81
2022/05/30 03:45:27;;;;;;;1.70;0.60;;;14.10;99.90;;;;;;1884542;75;21118;-80
2022/05/30 03:48:20;;;;;;;1.40;0.60;;;14.10;99.90;;;;;;1871677;76;21158;-80
2022/05/30 03:51:14;;;;;;;1.60;0.42;;;14.00;99.90;;;;;;1886330;75;21195;-81
2022/05/30 03:54:06;;;;;;;2.12;0.60;;;13.90;99.90;;;;;;1882466;74;21127;-81
2022/05/30 03:56:57;;;;;;;1.95;0.60;;;13.80;99.90;;;;;;1879237;75;21087;-80
2022/05/30 03:59:51;;;;;;;1.57;0.80;;;13.80;99.90;;;;;;1887698;75;21100;-80
2022/05/30 04:02:43;;;;;;;1.90;0.62;;;13.80;99.90;;;;;;1875818;75;21177;-80
2022/05/30 04:05:35;;;;;;;1.42;0.80;;;13.70;99.90;;;;;;1882101;75;21095;-80
2022/05/30 04:08:28;;;;;;;5.83;0.60;;;13.70;99.90;;;;;;1886397;75;21562;-80
2022/05/30 04:11:24;;;;;;;1.52;0.60;;;13.70;99.90;;;;;;1905706;75;21224;-80
2022/05/30 04:14:17;;;;;;;1.55;0.70;;;13.70;99.90;;;;;;1904809;74;21094;-80
2022/05/30 04:17:13;;;;;;;2.45;0.60;;;13.60;99.90;;;;;;1884963;74;21181;-80
2022/05/30 04:20:06;;;;;;;1.12;0.65;;;13.60;99.90;;;;;;1900647;75;21122;-80
2022/05/30 04:22:58;;;;;;;1.27;0.53;;;13.60;99.90;;;;;;1876236;75;21102;-80
2022/05/30 04:25:57;;;;;;;3.10;0.85;;;13.60;99.90;;;;;;1881715;75;21067;-80
2022/05/30 04:28:50;;;;;;;2.70;0.70;;;13.60;99.90;;;;;;1886629;75;21166;-80
2022/05/30 04:32:02;;;;;;;2.55;0.90;;;13.60;99.90;;;;;;1885649;75;21102;-82
2022/05/30 04:34:55;;;;;;;2.15;0.80;;;13.50;99.90;;;;;;1882223;75;21063;-80
2022/05/30 04:37:51;;;;;;;1.72;0.60;;;13.50;99.90;;;;;;1888139;75;21622;-80
2022/05/30 04:40:52;;;;;;;3.20;0.90;;;13.50;99.90;;;;;;1892999;75;21535;-80
2022/05/30 04:43:45;;;;;;;1.80;0.70;;;13.60;99.90;;;;;;1890518;75;21162;-80
2022/05/30 04:46:56;;;;;;;2.50;0.70;;;13.50;99.90;;;;;;1883172;74;21702;-80
2022/05/30 04:49:49;;;;;;;3.10;0.93;;;13.50;99.90;;;;;;1880874;76;21118;-80
2022/05/30 04:52:41;;;;;;;3.62;0.88;;;13.60;99.90;;;;;;1880406;75;21157;-80
2022/05/30 04:58:34;;;;;;;4.08;0.85;;;13.50;99.90;;;;;;1933323;72;22650;-79
2022/05/30 05:01:48;;;;;;;2.95;0.88;;;13.60;99.90;;;;;;1906044;75;21131;-79
2022/05/30 05:04:58;;;;;;;3.77;1.05;;;13.70;99.90;;;;;;1905875;75;21562;-80
2022/05/30 05:10:42;;;;;;;4.87;0.98;;;13.60;99.90;;;;;;1949644;72;22251;-80
2022/05/30 05:13:53;;;;;;;2.90;0.90;;;13.60;99.90;;;;;;1885126;74;21106;-80
2022/05/30 05:17:21;;;;;;;2.22;0.80;;;13.60;99.90;;;;;;1897437;75;21089;-79
2022/05/30 05:20:14;;;;;;;1.80;0.80;;;13.60;99.90;;;;;;1894957;75;21103;-79
2022/05/30 05:23:23;;;;;;;2.77;0.90;;;13.70;99.90;;;;;;1900876;73;21110;-79
2022/05/30 05:26:17;;;;;;;2.20;0.70;;;13.70;99.90;;;;;;1910568;75;21172;-79
2022/05/30 05:29:18;;;;;;;3.08;1.10;;;13.80;99.90;;;;;;1904034;75;21126;-79
2022/05/30 05:32:11;;;;;;;3.95;0.80;;;13.80;99.90;;;;;;1883893;75;21187;-79
2022/05/30 05:35:03;;;;;;;2.22;0.70;;;13.80;99.90;;;;;;1894804;75;21095;-79
2022/05/30 05:37:55;;;;;;;3.30;0.90;;;13.90;99.90;;;;;;1895019;75;21139;-79
2022/05/30 05:40:52;;;;;;;2.15;0.90;;;14.00;99.90;;;;;;1897217;75;21156;-79
2022/05/30 05:43:45;;;;;;;2.25;0.90;;;14.10;99.90;;;;;;1876967;74;21102;-80
2022/05/30 05:46:36;;;;;;;2.45;0.70;;;14.20;99.90;;;;;;1898285;75;21545;-80
2022/05/30 05:49:28;;;;;;;3.80;1.00;;;14.30;99.90;;;;;;1894460;75;21114;-81
2022/05/30 05:52:20;;;;;;;3.30;1.00;;;14.30;99.90;;;;;;1908812;73;21106;-80
2022/05/30 05:55:12;;;;;;;2.40;0.82;;;14.40;99.90;;;;;;1895941;75;21181;-80
2022/05/30 05:58:05;;;;;;;3.90;1.15;;;14.30;99.90;;;;;;1899809;75;21108;-80
2022/05/30 06:00:56;;;;;;;4.92;1.07;;;14.20;99.90;;;;;;1884275;75;21183;-80
2022/05/30 06:03:55;;;;;;;3.80;0.98;;;14.20;99.90;;;;;;1889665;75;21224;-80
2022/05/30 06:06:55;;;;;;;1.25;1.00;;;14.20;99.90;;;;;;1873958;75;21164;-80
2022/05/30 06:09:51;;;;;;;3.50;1.00;;;14.20;99.90;;;;;;1915422;74;21668;-80
2022/05/30 06:12:57;;;;;;;3.67;0.93;;;14.30;99.90;;;;;;1890807;75;21633;-80
2022/05/30 06:15:49;;;;;;;2.98;0.85;;;14.40;99.90;;;;;;1872008;76;21118;-80
2022/05/30 06:18:42;;;;;;;4.28;1.15;;;14.50;99.90;;;;;;1893176;75;21160;-80
2022/05/30 06:21:35;;;;;;;2.27;0.80;;;14.60;99.90;;;;;;1870629;75;21100;-80
2022/05/30 06:24:26;;;;;;;9.78;1.12;;;14.60;99.90;;;;;;1873083;74;21067;-79
2022/05/30 06:27:38;;;;;;;2.77;0.90;;;14.70;99.90;;;;;;1893616;75;21257;-79
2022/05/30 06:30:48;;;;;;;3.35;1.10;;;14.70;99.90;;;;;;1870700;75;21199;-80
2022/05/30 06:33:40;;;;;;;3.37;0.90;;;14.70;99.90;;;;;;1903392;74;21212;-80
2022/05/30 06:36:34;;;;;;;3.15;1.20;;;14.70;99.90;;;;;;1892951;75;21073;-80
2022/05/30 06:39:27;;;;;;;2.47;1.00;;;14.70;99.90;;;;;;1881746;75;21099;-80
2022/05/30 06:42:20;;;;;;;4.65;0.90;;;14.70;99.90;;;;;;1901049;75;21095;-80
2022/05/30 06:45:30;;;;;;;1.82;0.93;;;14.70;99.90;;;;;;1870349;75;21124;-80
2022/05/30 06:48:40;;;;;;;3.60;1.12;;;14.60;99.90;;;;;;1904660;75;21613;-80
2022/05/30 06:51:35;;;;;;;4.58;1.00;;;14.60;99.90;;;;;;1886889;75;21254;-80
2022/05/30 06:54:28;;;;;;;1.82;0.72;;;14.70;99.90;;;;;;1899101;73;21126;-80
2022/05/30 07:00:30;;;;;;;4.25;0.78;;;14.60;99.90;;;;;;1905135;75;21098;-80
2022/05/30 07:03:36;;;;;;;3.77;0.80;;;14.70;99.90;;;;;;1909479;75;21096;-80
2022/05/30 07:06:45;;;;;;;3.90;1.07;;;14.70;99.90;;;;;;1893693;75;21106;-80
2022/05/30 07:09:44;;;;;;;2.05;0.82;;;14.70;99.90;;;;;;1866670;75;21590;-80
2022/05/30 07:12:44;;;;;;;3.83;1.00;;;14.90;99.90;;;;;;1910889;74;21196;-80
2022/05/30 07:15:36;;;;;;;2.37;0.78;;;14.90;99.90;;;;;;1894392;74;21096;-80
2022/05/30 07:18:29;;;;;;;2.90;1.00;;;14.90;99.90;;;;;;1914807;74;21373;-80
2022/05/30 07:21:21;;;;;;;3.62;0.80;;;14.80;99.90;;;;;;1916759;74;21613;-79
2022/05/30 07:24:31;;;;;;;2.95;1.10;;;15.00;99.90;;;;;;1924731;73;21171;-80
2022/05/30 07:27:40;;;;;;;3.85;0.90;;;15.10;99.90;;;;;;1914994;74;21171;-80
2022/05/30 07:30:50;;;;;;;2.60;0.82;;;15.10;99.90;;;;;;1926033;74;21074;-80
2022/05/30 07:33:59;;;;;;;3.80;0.78;;;15.20;99.90;;;;;;1905998;74;21070;-80
2022/05/30 07:37:09;;;;;;;4.62;0.80;;;15.10;99.90;;;;;;1911335;74;21097;-80
2022/05/30 07:40:09;;;;;;;3.58;0.70;;;15.20;99.90;;;;;;1888724;74;21171;-80
2022/05/30 07:43:07;;;;;;;4.95;0.80;;;15.30;99.90;;;;;;1893477;74;21089;-80
2022/05/30 07:46:05;;;;;;;2.75;0.70;;;15.30;99.90;;;;;;1888539;74;21602;-80
2022/05/30 07:49:13;;;;;;;2.20;0.70;;;15.40;99.90;;;;;;1880347;74;21558;-80
2022/05/30 07:52:10;;;;;;;4.40;0.90;;;15.40;99.90;;;;;;1894818;74;21619;-80
2022/05/30 07:55:20;;;;;;;5.78;0.82;;;15.50;99.90;;;;;;1904814;74;21160;-80
2022/05/30 07:58:12;;;;;;;1.90;0.80;;;15.70;99.90;;;;;;1925635;74;21144;-80
2022/05/30 08:01:08;;;;;;;4.83;0.90;;;15.80;99.90;;;;;;1907079;74;21172;-80
2022/05/30 08:04:02;;;;;;;1.45;0.70;;;15.80;99.90;;;;;;1893656;74;21156;-80
2022/05/30 08:07:01;;;;;;;2.33;0.60;;;16.00;99.90;;;;;;1892998;74;21144;-80
2022/05/30 08:10:09;;;;;;;4.10;1.10;;;16.00;99.90;;;;;;1907455;74;21119;-80
2022/05/30 08:13:01;;;;;;;3.25;0.70;;;16.10;99.90;;;;;;1914974;74;21117;-80
2022/05/30 08:16:03;;;;;;;1.77;0.70;;;16.20;99.90;;;;;;1894807;74;21102;-80
2022/05/30 08:18:56;;;;;;;1.87;0.60;;;16.30;99.90;;;;;;1892577;76;21126;-80
2022/05/30 08:21:47;;;;;;;3.02;0.80;;;16.50;99.90;;;;;;1914881;74;21101;-80
2022/05/30 08:24:40;;;;;;;5.42;0.75;;;16.70;99.90;;;;;;1903954;73;21109;-80
2022/05/30 08:27:33;;;;;;;2.22;0.90;;;16.80;99.90;;;;;;1913418;74;21103;-81
2022/05/30 08:30:27;;;;;;;3.27;0.90;;;16.90;99.90;;;;;;1908565;74;21542;-80
2022/05/30 08:33:35;;;;;;;2.35;0.85;;;17.10;99.90;;;;;;1906935;74;21163;-80
2022/05/30 08:36:27;;;;;;;4.05;0.70;;;17.20;99.90;;;;;;1908818;74;21117;-80
2022/05/30 08:42:39;;;;;;;1.87;0.80;;;17.30;99.90;;;;;;1824261;74;21181;-81
2022/05/30 08:45:40;;;;;;;8.33;1.25;;;17.40;99.90;;;;;;1894563;74;21099;-80
2022/05/30 08:48:46;;;;;;;2.75;0.70;;;17.50;99.90;;;;;;1909507;74;21164;-80
2022/05/30 08:51:50;;;;;;;4.47;1.00;;;17.60;99.90;;;;;;1892678;74;21165;-80
2022/05/30 08:54:51;;;;;;;3.40;0.70;;;17.60;99.90;;;;;;1895125;73;21140;-80
2022/05/30 08:57:52;;;;;;;4.12;0.85;;;17.50;99.90;;;;;;1892896;74;21103;-80
2022/05/30 09:00:47;;;;;;;1.30;0.88;;;17.60;99.90;;;;;;1900982;73;21621;-80
2022/05/30 09:03:44;;;;;;;1.75;0.70;;;17.70;99.90;;;;;;1856523;76;21078;-80
2022/05/30 09:06:39;;;;;;;4.53;1.17;;;17.80;99.90;;;;;;1858484;77;21113;-80
2022/05/30 09:09:35;;;;;;;3.15;0.78;;;18.00;99.90;;;;;;1909966;74;21145;-80
2022/05/30 09:12:32;;;;;;;3.37;1.00;;;18.30;99.90;;;;;;1906238;73;21121;-80
2022/05/30 09:15:47;;;;;;;4.70;0.90;;;18.60;99.90;;;;;;1905738;74;21094;-80
2022/05/30 09:18:44;;;;;;;5.75;1.20;;;18.70;99.90;;;;;;1903341;74;21083;-80
2022/05/30 09:21:37;;;;;;;4.37;0.90;;;18.80;99.90;;;;;;1899024;74;21050;-81
2022/05/30 09:24:30;;;;;;;4.87;1.00;;;18.90;99.90;;;;;;1906242;73;21105;-81
2022/05/30 09:27:21;;;;;;;3.87;0.75;;;18.80;99.90;;;;;;1910223;74;21106;-80
2022/05/30 09:30:17;;;;;;;1.57;0.70;;;18.80;99.90;;;;;;1892689;74;21056;-81
2022/05/30 09:33:31;;;;;;;2.27;1.17;;;19.20;99.90;;;;;;1925628;73;21109;-80
2022/05/30 09:36:29;;;;;;;3.75;1.20;;;19.40;99.90;;;;;;1904439;74;21127;-80
2022/05/30 09:39:32;;;;;;;2.35;0.70;;;19.60;99.90;;;;;;1907551;74;21100;-80
2022/05/30 09:42:28;;;;;;;2.45;1.00;;;20.00;99.90;;;;;;1893027;74;21210;-79
2022/05/30 09:45:27;;;;;;;3.55;1.30;;;20.00;99.90;;;;;;1892867;74;21101;-80
2022/05/30 09:48:29;;;;;;;3.52;1.00;;;19.70;99.90;;;;;;1904182;74;21542;-80
2022/05/30 09:51:33;;;;;;;3.33;1.10;;;19.70;99.90;;;;;;1904895;74;21175;-80
2022/05/30 09:54:35;;;;;;;1.72;0.80;;;20.00;99.90;;;;;;1914622;74;21165;-80
2022/05/30 09:57:32;;;;;;;3.00;0.98;;;20.30;99.90;;;;;;1914722;74;21140;-80
2022/05/30 10:00:38;;;;;;;4.58;1.10;;;20.10;99.90;;;;;;1913882;74;21130;-80
2022/05/30 10:03:32;;;;;;;4.85;0.80;;;20.20;99.90;;;;;;1902289;74;21109;-79
2022/05/30 10:06:27;;;;;;;4.20;1.00;;;20.10;99.90;;;;;;1889801;74;21059;-79
2022/05/30 10:12:08;;;;;;;6.67;1.32;;;19.90;99.90;;;;;;1937888;72;22154;-79
2022/05/30 10:18:30;;;;;;;4.00;1.05;;;19.80;99.90;;;;;;1947598;72;22125;-79
2022/05/30 10:29:13;;;;;;;4.08;1.22;;;20.00;99.90;;;;;;1897155;75;21094;-79
2022/05/30 10:32:32;;;;;;;2.70;0.98;;;20.10;99.90;;;;;;1904407;75;21188;-79
2022/05/30 10:35:28;;;;;;;3.42;1.30;;;20.00;99.90;;;;;;1900536;75;21094;-79
2022/05/30 10:38:35;;;;;;;1.85;0.80;;;20.00;99.90;;;;;;1905520;75;21070;-79
2022/05/30 10:41:30;;;;;;;3.35;1.10;;;20.20;99.90;;;;;;1906510;75;21130;-79
2022/05/30 10:44:25;;;;;;;3.17;0.80;;;20.10;99.90;;;;;;1906295;75;21233;-78
2022/05/30 10:47:21;;;;;;;1.65;0.98;;;20.00;99.90;;;;;;1906129;75;21122;-80
2022/05/30 10:50:18;;;;;;;4.05;0.80;;;19.90;99.90;;;;;;1884815;76;21523;-79
2022/05/30 10:53:13;;;;;;;1.70;0.70;;;20.10;99.90;;;;;;1900486;75;21063;-79
2022/05/30 10:56:21;;;;;;;3.20;0.95;;;20.30;99.90;;;;;;1876770;75;21552;-78
2022/05/30 10:59:20;;;;;;;2.37;0.90;;;20.30;99.90;;;;;;1895464;75;21084;-80
2022/05/30 11:02:15;;;;;;;2.60;1.07;;;20.40;99.90;;;;;;1895508;75;21129;-81
2022/05/30 11:05:12;;;;;;;4.45;1.25;;;20.60;99.90;;;;;;1895594;75;21518;-79
2022/05/30 11:08:09;;;;;;;2.50;0.75;;;20.60;99.90;;;;;;1897590;75;21066;-78
2022/05/30 11:11:05;;;;;;;3.15;1.25;;;20.70;99.90;;;;;;1886274;75;21084;-79
2022/05/30 11:14:02;;;;;;;2.17;0.80;;;20.90;99.90;;;;;;1896851;75;21075;-79
2022/05/30 11:17:00;;;;;;;3.70;0.90;;;21.00;99.90;;;;;;1893686;75;21098;-79
2022/05/30 11:20:13;;;;;;;3.87;0.88;;;21.00;99.90;;;;;;1882936;75;21059;-80
2022/05/30 11:23:10;;;;;;;2.12;0.80;;;21.00;99.90;;;;;;1883307;75;21136;-79
2022/05/30 11:29:27;;;;;;;2.98;0.90;;;21.20;99.90;;;;;;1953473;72;22177;-78
2022/05/30 11:33:09;;;;;;;2.17;0.70;;;21.40;99.90;;;;;;1907567;75;21148;-78
2022/05/30 11:36:37;;;;;;;1.52;0.80;;;21.50;99.90;;;;;;1895170;75;21063;-78
2022/05/30 11:39:58;;;;;;;2.12;0.60;;;21.40;99.90;;;;;;1912169;75;21161;-80
2022/05/30 11:43:24;;;;;;;2.33;0.80;;;21.50;99.60;;;;;;1896001;75;21020;-79
2022/05/30 11:46:22;;;;;;;1.95;0.90;;;21.40;99.90;;;;;;1895223;75;21133;-79
2022/05/30 11:49:20;;;;;;;1.25;0.72;;;21.60;99.90;;;;;;1911455;75;21627;-79
2022/05/30 11:52:19;;;;;;;2.12;0.95;;;21.70;99.90;;;;;;1909000;75;21055;-79
2022/05/30 11:55:17;;;;;;;2.42;0.88;;;21.60;99.90;;;;;;1917552;75;21117;-79
2022/05/30 11:58:12;;;;;;;1.25;0.70;;;21.50;99.90;;;;;;1884715;76;21153;-78
2022/05/30 12:01:07;;;;;;;4.83;0.90;;;21.60;99.80;;;;;;1897061;75;21124;-77
2022/05/30 12:04:38;;;;;;;4.45;0.98;;;21.50;99.40;;;;;;1909627;75;21059;-78
2022/05/30 12:08:08;;;;;;;2.70;0.78;;;21.50;99.90;;;;;;1896667;75;21597;-78
2022/05/30 12:11:10;;;;;;;4.85;0.72;;;21.70;99.10;;;;;;1916047;75;21146;-78
2022/05/30 12:14:10;;;;;;;2.60;1.00;;;21.70;99.40;;;;;;1921299;74;21160;-78
2022/05/30 12:17:07;;;;;;;4.12;0.98;;;21.60;99.50;;;;;;1895124;75;21646;-79
2022/05/30 12:27:01;;;;;;;1.85;0.93;;;22.10;97.90;;;;;;1895467;75;21167;-79
2022/05/30 12:29:54;;;;;;;3.02;0.80;;;22.10;97.70;;;;;;1911283;74;21180;-79
2022/05/30 12:32:47;;;;;;;2.15;0.80;;;22.10;98.40;;;;;;1911265;74;21143;-79
2022/05/30 12:35:39;;;;;;;3.17;1.10;;;22.20;97.30;;;;;;1913431;74;21101;-80
2022/05/30 12:41:34;;;;;;;6.92;0.90;;;22.20;97.30;;;;;;1963714;72;22223;-79
2022/05/30 12:44:54;;;;;;;2.20;0.70;;;22.30;97.20;;;;;;1917635;75;21093;-80
2022/05/30 12:48:12;;;;;;;1.52;0.70;;;22.40;97.10;;;;;;1917581;75;21175;-80
2022/05/30 12:51:17;;;;;;;3.37;0.95;;;22.60;97.00;;;;;;1917216;75;22292;-80
2022/05/30 12:57:42;;;;;;;3.75;1.25;;;22.50;96.60;;;;;;1944564;72;22329;-78
2022/05/30 13:01:09;;;;;;;1.80;0.70;;;22.60;96.40;;;;;;1940337;73;21116;-79
2022/05/30 13:04:25;;;;;;;2.45;1.00;;;22.60;96.70;;;;;;1917711;75;21084;-79
2022/05/30 13:07:19;;;;;;;4.20;1.00;;;22.70;96.30;;;;;;1927285;73;21135;-78
2022/05/30 13:10:40;;;;;;;3.37;1.02;;;22.70;96.60;;;;;;1919644;73;21133;-79
2022/05/30 13:13:34;;;;;;;12.05;1.95;;;22.80;96.00;;;;;;1917443;75;21055;-79
2022/05/30 13:16:31;;;;;;;4.12;1.25;;;22.90;97.00;;;;;;1917493;73;21113;-79
2022/05/30 13:19:22;;;;;;;1.52;0.90;;;22.90;96.50;;;;;;1917448;75;21071;-79
2022/05/30 13:22:15;;;;;;;1.65;1.00;;;22.70;96.20;;;;;;1917341;75;21168;-79
2022/05/30 13:25:11;;;;;;;2.02;1.10;;;22.70;96.00;;;;;;1917292;75;21220;-79
2022/05/30 13:28:09;;;;;;;3.75;0.98;;;22.50;96.30;;;;;;1917063;75;21133;-79
2022/05/30 13:31:08;;;;;;;2.50;1.07;;;22.70;96.40;;;;;;1917287;75;21075;-79
2022/05/30 13:34:02;;;;;;;3.15;1.00;;;22.70;95.60;;;;;;1917065;75;21129;-79
2022/05/30 13:36:55;;;;;;;1.98;0.78;;;22.70;95.40;;;;;;1931329;73;21110;-79
2022/05/30 13:39:48;;;;;;;2.62;0.80;;;22.60;95.40;;;;;;1919083;73;21588;-78
2022/05/30 13:42:51;;;;;;;1.52;0.80;;;22.60;95.40;;;;;;1917333;75;21138;-79
2022/05/30 13:45:47;;;;;;;2.55;0.70;;;22.50;95.30;;;;;;1939958;73;21047;-78
2022/05/30 13:48:40;;;;;;;1.70;0.88;;;22.40;95.30;;;;;;1917347;75;21127;-79
2022/05/30 13:51:34;;;;;;;1.42;0.68;;;22.60;95.20;;;;;;1932975;73;21102;-79
2022/05/30 13:54:26;;;;;;;2.70;0.85;;;22.50;95.60;;;;;;1917541;73;21580;-79
2022/05/30 13:57:18;;;;;;;2.60;1.02;;;22.50;95.30;;;;;;1940195;73;21094;-79
2022/05/30 14:00:14;;;;;;;3.05;0.90;;;22.50;95.40;;;;;;1917616;75;21115;-78
2022/05/30 14:03:06;;;;;;;4.05;1.20;;;22.60;95.20;;;;;;1917550;75;21059;-78
2022/05/30 14:05:58;;;;;;;2.33;0.70;;;22.70;95.20;;;;;;1917449;75;21107;-79
2022/05/30 14:08:50;;;;;;;2.50;0.80;;;22.70;95.00;;;;;;1908319;74;21121;-79
2022/05/30 14:11:44;;;;;;;2.92;1.10;;;22.70;94.70;;;;;;1868948;76;21145;-79
2022/05/30 14:14:40;;;;;;;4.30;0.90;;;22.80;95.10;;;;;;1863770;77;21233;-79
2022/05/30 14:17:32;;;;;;;3.22;0.98;;;22.80;94.60;;;;;;1851614;77;21060;-79
2022/05/30 14:20:33;;;;;;;2.40;0.90;;;22.80;94.40;;;;;;1864932;76;21165;-79
2022/05/30 14:23:25;;;;;;;2.62;0.85;;;22.70;94.60;;;;;;1908390;74;21095;-79
2022/05/30 14:26:30;;;;;;;3.90;0.88;;;22.60;94.90;;;;;;1904545;75;21479;-79
2022/05/30 14:29:25;;;;;;;2.22;0.95;;;22.50;94.60;;;;;;1926783;74;21151;-79
2022/05/30 14:32:31;;;;;;;2.00;0.88;;;22.60;95.20;;;;;;1904604;75;21222;-79
2022/05/30 14:35:28;;;;;;;3.00;0.80;;;22.60;94.60;;;;;;1904416;75;21150;-79
2022/05/30 14:38:28;;;;;;;4.20;0.80;;;23.00;94.30;;;;;;1915919;74;21209;-78
2022/05/30 14:41:25;;;;;;;2.30;0.90;;;23.10;94.70;;;;;;1928094;73;21051;-79
2022/05/30 14:44:22;;;;;;;2.92;0.90;;;23.00;94.10;;;;;;1922664;73;21091;-79
2022/05/30 14:47:15;;;;;;;1.92;0.82;;;23.30;93.80;;;;;;1916743;75;21204;-79
2022/05/30 14:50:09;;;;;;;2.65;0.70;;;23.10;94.00;;;;;;1904433;75;21143;-79
2022/05/30 14:53:01;;;;;;;2.72;0.70;;;23.60;93.70;;;;;;1904070;75;21094;-79
2022/05/30 14:55:55;;;;;;;2.25;0.98;;;23.70;93.00;;;;;;1904530;75;21057;-78
2022/05/30 14:58:50;;;;;;;2.30;1.00;;;23.50;93.10;;;;;;1907955;74;21141;-79
2022/05/30 15:01:43;;;;;;;3.80;0.98;;;23.80;93.20;;;;;;1913126;74;21074;-79
2022/05/30 15:04:35;;;;;;;2.45;0.95;;;23.70;92.40;;;;;;1914364;74;21134;-79
2022/05/30 15:07:30;;;;;;;3.42;0.93;;;23.60;92.40;;;;;;1913888;74;21043;-79
2022/05/30 15:10:24;;;;;;;2.70;1.00;;;24.00;92.20;;;;;;1919272;74;21090;-79
2022/05/30 15:13:16;;;;;;;3.75;1.05;;;24.30;91.80;;;;;;1924476;74;21067;-79
2022/05/30 15:16:08;;;;;;;2.47;0.80;;;24.50;91.10;;;;;;1902111;75;21058;-79
2022/05/30 15:19:00;;;;;;;1.65;0.70;;;24.30;91.20;;;;;;1912021;74;21176;-79
2022/05/30 15:21:54;;;;;;;2.00;0.80;;;24.70;90.30;;;;;;1909942;74;21131;-79
2022/05/30 15:24:49;;;;;;;3.72;1.05;;;24.80;90.30;;;;;;1911196;74;21107;-80
2022/05/30 15:27:43;;;;;;;2.05;1.00;;;25.50;88.70;;;;;;1913582;74;21072;-79
2022/05/30 15:30:35;;;;;;;5.15;0.90;;;25.70;86.70;;;;;;1914309;74;21047;-80
2022/05/30 15:33:28;;;;;;;2.62;0.85;;;25.80;86.40;;;;;;1914090;74;22085;-80
2022/05/30 15:36:22;;;;;;;3.30;1.02;;;25.80;85.10;;;;;;1922492;74;21106;-79
2022/05/30 15:39:15;;;;;;;2.98;0.80;;;26.40;84.00;;;;;;1926758;74;21055;-79
2022/05/30 15:42:09;;;;;;;2.92;0.90;;;26.80;83.40;;;;;;1915384;74;21108;-80
2022/05/30 15:45:02;;;;;;;1.80;0.70;;;27.10;81.20;;;;;;1913456;74;21043;-80
2022/05/30 15:47:53;;;;;;;2.50;1.07;;;27.10;79.70;;;;;;1902386;74;21064;-80
2022/05/30 15:50:46;;;;;;;2.27;0.90;;;27.40;78.90;;;;;;1918717;74;21059;-80
2022/05/30 16:00:06;;;;;;;2.85;0.88;;;27.80;75.90;;;;;;1918275;74;21200;-80
2022/05/30 16:02:57;;;;;;;2.60;1.00;;;28.10;74.50;;;;;;1915057;74;21145;-80
2022/05/30 16:05:50;;;;;;;1.77;0.80;;;28.00;74.50;;;;;;1911318;74;21133;-80
2022/05/30 16:08:45;;;;;;;3.70;0.98;;;28.30;73.00;;;;;;1910299;74;21336;-80
2022/05/30 16:11:36;;;;;;;3.05;0.80;;;28.30;72.60;;;;;;1910103;74;21116;-80
2022/05/30 16:14:29;;;;;;;1.90;1.00;;;28.60;72.40;;;;;;1911750;74;21063;-80
2022/05/30 16:17:20;;;;;;;2.90;0.70;;;28.80;70.80;;;;;;1915944;74;21087;-80
2022/05/30 16:20:14;;;;;;;2.58;0.80;;;28.60;70.80;;;;;;1904678;74;21125;-79
2022/05/30 16:23:07;;;;;;;2.37;0.70;;;28.50;70.40;;;;;;1924280;74;21040;-80